Time;durP1;ratioP1;P1;durP2;ratioP2;P2;SDS_P1;SDS_P2;PMS_P1;PMS_P2;Temp;Humidity;BMP_temperature;BMP_pressure;BME280_temperature;BME280_humidity;BME280_pressure;Samples;Min_cycle;Max_cycle;Signal;HPM_P1;HPM_P2
2021/12/06 00:00:59;;;;;;;46.67;27.50;;;;;;;6.31;67.38;98684.44;4469397;32;34073;-80
2021/12/06 00:03:34;;;;;;;40.92;23.80;;;;;;;5.27;71.17;98701.75;4469321;32;33540;-79
2021/12/06 00:06:04;;;;;;;38.83;20.02;;;;;;;5.48;70.46;98703.56;4468842;32;32185;-79
2021/12/06 00:08:32;;;;;;;33.67;19.27;;;;;;;5.79;69.37;98708.56;4456722;32;35324;-79
2021/12/06 00:11:06;;;;;;;35.47;17.60;;;;;;;6.00;68.84;98704.03;4455927;32;33968;-79
2021/12/06 00:13:40;;;;;;;36.75;19.67;;;;;;;5.81;69.57;98713.78;4444226;32;32149;-79
2021/12/06 00:16:12;;;;;;;35.75;17.77;;;;;;;6.07;68.61;98711.19;4468947;32;34485;-79
2021/12/06 00:18:40;;;;;;;30.90;16.27;;;;;;;5.93;69.05;98720.34;4456366;32;34373;-79
2021/12/06 00:21:08;;;;;;;33.53;19.00;;;;;;;6.00;68.86;98721.22;4456260;32;32526;-79
2021/12/06 00:23:35;;;;;;;34.78;18.25;;;;;;;6.03;68.71;98719.97;4456145;32;34318;-78
2021/12/06 00:26:04;;;;;;;32.35;16.95;;;;;;;5.98;68.55;98706.97;4456159;32;32287;-79
2021/12/06 00:28:32;;;;;;;31.92;17.23;;;;;;;6.00;70.27;98704.87;4456345;32;34689;-79
2021/12/06 00:31:00;;;;;;;33.75;16.90;;;;;;;6.14;69.25;98700.31;4456035;32;32701;-79
2021/12/06 00:33:28;;;;;;;30.80;15.70;;;;;;;6.08;69.00;98701.12;4456082;32;32122;-79
2021/12/06 00:36:03;;;;;;;30.10;15.00;;;;;;;6.25;68.20;98708.72;4442824;32;32190;-79
2021/12/06 00:38:32;;;;;;;33.47;16.05;;;;;;;6.34;67.97;98717.56;4443852;32;32914;-79
2021/12/06 00:41:02;;;;;;;29.27;15.40;;;;;;;6.19;68.38;98716.88;4456011;32;33433;-79
2021/12/06 00:43:30;;;;;;;28.12;14.75;;;;;;;6.45;67.51;98706.06;4468822;32;33684;-79
2021/12/06 00:45:59;;;;;;;33.03;14.57;;;;;;;6.27;67.87;98701.19;4456071;32;32378;-79
2021/12/06 00:48:26;;;;;;;28.10;14.90;;;;;;;6.39;67.60;98701.44;4455921;32;33074;-79
2021/12/06 00:50:54;;;;;;;26.23;13.90;;;;;;;6.30;67.80;98716.28;4443059;32;32547;-79
2021/12/06 00:53:22;;;;;;;34.33;20.85;;;;;;;6.03;68.76;98734.44;4455839;32;33335;-79
2021/12/06 00:55:50;;;;;;;65.87;41.35;;;;;;;6.21;67.98;98734.72;4451280;32;34594;-79
2021/12/06 00:58:17;;;;;;;36.83;22.20;;;;;;;6.30;67.66;98724.47;4440159;32;33520;-79
2021/12/06 01:00:48;;;;;;;34.35;19.55;;;;;;;6.47;67.19;98722.22;4456114;32;34097;-79
2021/12/06 01:03:20;;;;;;;28.55;15.63;;;;;;;6.33;67.31;98723.22;4443071;32;32908;-79
2021/12/06 01:05:48;;;;;;;24.63;13.95;;;;;;;6.23;67.77;98735.34;4455752;32;32283;-79
2021/12/06 01:08:16;;;;;;;26.20;14.38;;;;;;;6.34;67.58;98741.25;4454708;32;35413;-79
2021/12/06 01:10:44;;;;;;;25.35;13.32;;;;;;;6.46;67.17;98724.09;4455614;32;33769;-79
2021/12/06 01:13:12;;;;;;;26.95;13.10;;;;;;;6.44;66.96;98711.72;4455650;32;32022;-79
2021/12/06 01:15:40;;;;;;;23.38;12.90;;;;;;;6.52;66.72;98706.03;4455639;32;33674;-79
2021/12/06 01:18:10;;;;;;;24.58;12.23;;;;;;;6.57;66.52;98698.94;4454632;32;34932;-79
2021/12/06 01:20:47;;;;;;;22.95;13.05;;;;;;;6.61;66.44;98696.63;4455810;32;34810;-79
2021/12/06 01:23:17;;;;;;;27.75;13.90;;;;;;;6.61;66.41;98696.63;4456356;32;33814;-79
2021/12/06 01:25:57;;;;;;;23.52;13.40;;;;;;;6.71;66.18;98707.13;4468234;32;33482;-79
2021/12/06 01:41:37;;;;;;;24.80;12.05;;;;;;;6.46;66.87;98713.19;4468217;32;34317;-79
2021/12/06 01:44:24;;;;;;;25.62;13.25;;;;;;;6.35;67.26;98710.22;4442442;32;32082;-79
2021/12/06 01:47:03;;;;;;;26.30;12.57;;;;;;;6.41;66.90;98704.78;4442682;32;33204;-79
2021/12/06 01:49:34;;;;;;;21.27;12.43;;;;;;;6.48;66.68;98708.38;4467943;32;34683;-79
2021/12/06 01:52:07;;;;;;;23.77;12.80;;;;;;;6.42;66.71;98713.81;4455169;32;34221;-79
2021/12/06 01:54:35;;;;;;;23.50;12.75;;;;;;;6.27;66.88;98705.81;4455463;32;33698;-79
2021/12/06 01:57:03;;;;;;;26.92;13.02;;;;;;;6.31;66.78;98711.69;4455261;32;34557;-79
2021/12/06 01:59:31;;;;;;;25.42;13.05;;;;;;;6.36;66.25;98717.34;4455080;32;34524;-78
2021/12/06 02:01:59;;;;;;;25.00;13.15;;;;;;;6.32;66.40;98727.81;4442352;32;32361;-79
2021/12/06 02:04:29;;;;;;;23.70;12.95;;;;;;;5.37;68.11;98723.16;4455306;32;33590;-78
2021/12/06 02:06:57;;;;;;;26.23;12.60;;;;;;;5.62;67.67;98721.66;4467872;32;33870;-78
2021/12/06 02:09:27;;;;;;;23.77;12.77;;;;;;;5.72;67.46;98718.56;4467698;32;34216;-78
2021/12/06 02:12:01;;;;;;;22.95;13.98;;;;;;;5.76;66.80;98710.84;4467714;32;33949;-78
2021/12/06 02:14:42;;;;;;;23.45;13.70;;;;;;;5.29;68.00;98718.72;4442591;32;33106;-78
2021/12/06 02:17:37;;;;;;;25.15;12.68;;;;;;;5.46;67.33;98712.97;4443324;32;32207;-78
2021/12/06 02:20:24;;;;;;;27.40;13.62;;;;;;;5.28;67.66;98711.59;4456731;32;32853;-79
2021/12/06 02:22:54;;;;;;;24.60;12.55;;;;;;;5.29;67.75;98712.44;4457975;32;34466;-79
2021/12/06 02:25:22;;;;;;;22.77;12.13;;;;;;;5.27;67.78;98703.63;4456892;32;32184;-79
2021/12/06 02:27:52;;;;;;;24.80;12.98;;;;;;;5.01;68.55;98698.03;4457075;32;33773;-78
2021/12/06 02:30:23;;;;;;;22.15;11.73;;;;;;;5.12;68.23;98711.94;4456664;32;35199;-79
2021/12/06 02:32:51;;;;;;;22.50;11.40;;;;;;;5.50;67.18;98704.19;4444328;32;32586;-78
2021/12/06 02:35:22;;;;;;;23.85;13.13;;;;;;;5.14;68.17;98709.00;4469773;32;33666;-78
2021/12/06 02:37:51;;;;;;;25.15;13.77;;;;;;;5.21;68.17;98709.88;4457265;32;33755;-78
2021/12/06 02:40:23;;;;;;;21.20;11.98;;;;;;;5.35;67.69;98713.53;4469658;32;34355;-78
2021/12/06 02:42:51;;;;;;;21.42;11.05;;;;;;;5.24;68.28;98706.75;4469647;32;34134;-78
2021/12/06 02:45:24;;;;;;;23.48;11.68;;;;;;;5.17;68.38;98719.50;4444101;32;32101;-78
2021/12/06 02:47:54;;;;;;;18.67;10.18;;;;;;;5.55;67.52;98712.59;4457045;32;33069;-78
2021/12/06 02:50:24;;;;;;;19.80;10.73;;;;;;;5.50;67.63;98719.69;4469527;32;35237;-78
2021/12/06 02:52:54;;;;;;;18.83;10.20;;;;;;;5.23;68.04;98732.28;4456586;32;32423;-79
2021/12/06 02:55:36;;;;;;;19.12;11.20;;;;;;;5.32;67.49;98719.38;4457278;32;33785;-78
2021/12/06 02:58:14;;;;;;;17.50;9.90;;;;;;;5.23;68.00;98724.12;4458026;32;34010;-79
2021/12/06 03:00:49;;;;;;;16.77;10.55;;;;;;;5.33;68.00;98730.03;4456672;32;33346;-78
2021/12/06 03:03:18;;;;;;;17.08;9.77;;;;;;;5.59;66.95;98722.06;4456693;32;32578;-78
2021/12/06 03:05:50;;;;;;;19.25;10.38;;;;;;;5.30;67.74;98730.44;4457146;32;34143;-79
2021/12/06 03:08:40;;;;;;;19.45;10.20;;;;;;;5.05;68.64;98748.25;4456926;32;34419;-78
2021/12/06 03:11:13;;;;;;;19.77;11.07;;;;;;;5.25;67.94;98739.19;4443941;32;33709;-78
2021/12/06 03:13:42;;;;;;;16.23;9.65;;;;;;;5.42;67.60;98733.44;4456664;32;34022;-78
2021/12/06 03:16:10;;;;;;;18.25;10.23;;;;;;;5.20;67.59;98730.78;4456573;32;33354;-79
2021/12/06 03:18:37;;;;;;;18.65;10.13;;;;;;;5.14;67.84;98731.59;4456325;32;32117;-78
2021/12/06 03:21:05;;;;;;;17.55;9.95;;;;;;;5.36;67.19;98724.19;4456608;32;34381;-78
2021/12/06 03:23:33;;;;;;;18.35;9.27;;;;;;;5.02;67.73;98732.34;4456190;32;32471;-78
2021/12/06 03:26:01;;;;;;;17.95;9.90;;;;;;;5.16;67.83;98743.13;4456883;32;34019;-78
2021/12/06 03:28:38;;;;;;;18.23;9.70;;;;;;;5.31;67.33;98737.56;4456549;32;34578;-78
2021/12/06 03:31:06;;;;;;;17.12;9.50;;;;;;;5.35;67.08;98741.56;4443358;32;32966;-78
2021/12/06 03:33:36;;;;;;;16.25;10.20;;;;;;;5.01;67.88;98736.09;4456490;32;32496;-78
2021/12/06 03:36:07;;;;;;;17.05;9.82;;;;;;;5.36;66.91;98740.53;4456487;32;32994;-78
2021/12/06 03:38:37;;;;;;;17.42;9.77;;;;;;;5.04;67.50;98742.00;4456721;32;33683;-78
2021/12/06 03:41:06;;;;;;;18.37;9.40;;;;;;;4.92;68.51;98749.84;4456767;32;35074;-78
2021/12/06 03:43:35;;;;;;;17.40;10.13;;;;;;;5.03;68.03;98753.06;4456321;32;32483;-79
2021/12/06 03:46:03;;;;;;;19.45;10.40;;;;;;;5.00;68.13;98756.16;4456719;32;34470;-84
2021/12/06 03:48:33;;;;;;;20.23;10.90;;;;;;;4.57;69.60;98765.16;4443685;32;32134;-78
2021/12/06 03:51:03;;;;;;;18.27;10.10;;;;;;;4.75;68.81;98747.56;4456398;32;32772;-78
2021/12/06 03:53:32;;;;;;;17.17;9.73;;;;;;;4.86;68.53;98750.63;4456677;32;34064;-79
2021/12/06 03:56:01;;;;;;;17.62;9.85;;;;;;;4.85;68.43;98737.22;4456755;32;33438;-79
2021/12/06 03:58:30;;;;;;;16.17;9.40;;;;;;;4.89;67.91;98743.94;4456775;32;33644;-79
2021/12/06 04:00:58;;;;;;;17.15;10.10;;;;;;;4.86;68.32;98744.34;4456417;32;34154;-79
2021/12/06 04:03:27;;;;;;;15.98;9.43;;;;;;;5.04;67.84;98746.59;4456576;32;34636;-79
2021/12/06 04:05:56;;;;;;;16.27;8.75;;;;;;;5.25;67.22;98749.22;4456420;32;31885;-79
2021/12/06 04:08:25;;;;;;;16.45;9.95;;;;;;;5.21;67.51;98747.94;4456415;32;33822;-79
2021/12/06 04:10:55;;;;;;;17.12;9.65;;;;;;;4.42;71.26;98753.53;4456488;32;34727;-79
2021/12/06 04:13:23;;;;;;;15.75;9.25;;;;;;;4.80;70.08;98740.53;4456534;32;34039;-79
2021/12/06 04:15:51;;;;;;;18.02;9.15;;;;;;;4.88;69.66;98734.94;4443688;32;32356;-79
2021/12/06 04:18:19;;;;;;;15.93;9.35;;;;;;;5.03;68.95;98734.03;4456056;32;34342;-79
2021/12/06 04:20:47;;;;;;;15.07;8.30;;;;;;;4.94;68.71;98736.88;4443654;32;34013;-79
2021/12/06 04:23:15;;;;;;;15.07;8.57;;;;;;;4.87;68.96;98741.41;4443473;32;33407;-80
2021/12/06 04:25:44;;;;;;;14.87;8.43;;;;;;;5.13;68.24;98750.84;4443460;32;31990;-80
2021/12/06 04:28:14;;;;;;;13.73;7.62;;;;;;;5.02;68.02;98754.09;4456445;32;34415;-79
2021/12/06 04:30:43;;;;;;;12.25;7.60;;;;;;;4.77;68.97;98759.09;4443665;32;32836;-79
2021/12/06 04:33:13;;;;;;;14.63;8.13;;;;;;;4.60;69.39;98761.22;4443696;32;34163;-79
2021/12/06 04:35:42;;;;;;;15.15;8.70;;;;;;;5.01;67.89;98757.84;4443699;32;31823;-79
2021/12/06 04:38:11;;;;;;;14.48;7.82;;;;;;;4.71;68.77;98763.44;4455998;32;33857;-79
2021/12/06 04:40:39;;;;;;;13.93;7.90;;;;;;;4.93;68.15;98756.94;4456058;32;32838;-79
2021/12/06 04:43:07;;;;;;;12.02;7.72;;;;;;;4.60;69.25;98756.63;4454926;32;32556;-79
2021/12/06 04:45:36;;;;;;;16.80;9.15;;;;;;;5.02;68.11;98749.50;4455967;32;33118;-79
2021/12/06 04:48:05;;;;;;;13.45;7.90;;;;;;;4.60;69.51;98756.63;4456029;32;32268;-79
2021/12/06 04:50:33;;;;;;;14.18;8.30;;;;;;;4.42;70.09;98769.00;4468952;32;35011;-79
2021/12/06 04:53:11;;;;;;;14.00;7.90;;;;;;;4.59;69.49;98773.97;4442816;32;33608;-79
2021/12/06 04:55:39;;;;;;;14.15;8.68;;;;;;;4.74;68.77;98768.47;4455972;32;33586;-79
2021/12/06 04:58:13;;;;;;;14.18;8.07;;;;;;;4.75;68.52;98775.59;4455931;32;32108;-79
2021/12/06 05:00:52;;;;;;;12.05;7.10;;;;;;;4.75;68.41;98780.19;4455664;32;33002;-80
2021/12/06 05:03:23;;;;;;;12.43;7.60;;;;;;;4.44;69.63;98778.66;4443230;32;33382;-80
2021/12/06 05:05:56;;;;;;;15.73;8.00;;;;;;;4.57;69.29;98786.06;4455850;32;33752;-80
2021/12/06 05:08:28;;;;;;;17.70;8.07;;;;;;;4.55;69.09;98780.00;4455865;32;34176;-80
2021/12/06 05:10:57;;;;;;;15.10;9.00;;;;;;;4.68;69.19;98790.16;4442899;32;33081;-80
2021/12/06 05:13:27;;;;;;;15.25;8.82;;;;;;;4.49;69.27;98787.06;4455819;32;34264;-80
2021/12/06 05:15:55;;;;;;;14.48;8.60;;;;;;;4.48;70.12;98789.97;4468553;32;33715;-80
2021/12/06 05:18:23;;;;;;;17.08;9.40;;;;;;;4.68;69.51;98801.03;4455668;32;33658;-80
2021/12/06 05:20:51;;;;;;;14.85;9.00;;;;;;;4.72;69.04;98803.16;4442976;32;33882;-80
2021/12/06 05:23:20;;;;;;;19.23;10.55;;;;;;;4.95;67.94;98808.41;4442894;32;32984;-80
2021/12/06 05:25:47;;;;;;;18.05;10.13;;;;;;;4.86;68.00;98809.56;4455626;32;33504;-80
2021/12/06 05:28:17;;;;;;;16.55;9.23;;;;;;;4.91;68.11;98813.41;4455590;32;33799;-80
2021/12/06 05:30:45;;;;;;;16.25;9.65;;;;;;;5.00;70.15;98813.28;4455535;32;34083;-79
2021/12/06 05:33:20;;;;;;;17.98;9.68;;;;;;;4.91;69.39;98807.13;4455379;32;32513;-79
2021/12/06 05:35:51;;;;;;;17.35;9.60;;;;;;;4.88;69.10;98811.06;4456578;32;32848;-79
2021/12/06 05:38:19;;;;;;;18.23;9.48;;;;;;;5.10;68.39;98805.63;4442629;32;32379;-79
2021/12/06 05:40:47;;;;;;;17.52;9.90;;;;;;;5.09;68.10;98810.22;4455295;32;32963;-79
2021/12/06 05:43:14;;;;;;;16.25;8.60;;;;;;;5.16;67.87;98799.41;4468102;32;34542;-79
2021/12/06 05:45:47;;;;;;;15.48;8.70;;;;;;;5.24;67.60;98804.69;4455292;32;33571;-78
2021/12/06 05:48:15;;;;;;;18.95;9.43;;;;;;;5.11;67.83;98796.44;4455259;32;33184;-79
2021/12/06 05:50:46;;;;;;;18.98;9.88;;;;;;;4.80;68.76;98811.19;4455155;32;34380;-79
2021/12/06 05:53:14;;;;;;;19.90;10.50;;;;;;;4.83;68.63;98812.69;4467816;32;33688;-80
2021/12/06 05:55:43;;;;;;;14.87;9.05;;;;;;;4.95;68.18;98809.25;4456658;32;33446;-78
2021/12/06 05:58:11;;;;;;;15.27;8.05;;;;;;;5.22;67.29;98809.47;4457178;32;33508;-79
2021/12/06 06:00:39;;;;;;;16.48;9.45;;;;;;;5.08;67.86;98818.56;4457001;32;33059;-84
2021/12/06 06:03:07;;;;;;;18.42;10.18;;;;;;;5.02;68.09;98816.62;4452392;32;34041;-79
2021/12/06 06:05:36;;;;;;;18.73;9.32;;;;;;;5.00;68.13;98821.44;4457000;32;33479;-79
2021/12/06 06:08:04;;;;;;;17.67;9.23;;;;;;;5.07;67.58;98833.22;4444473;32;33584;-79
2021/12/06 06:10:32;;;;;;;20.15;10.98;;;;;;;5.03;67.95;98842.78;4453984;32;34157;-79
2021/12/06 06:13:01;;;;;;;16.85;9.65;;;;;;;5.10;67.16;98855.41;4441528;32;32520;-79
2021/12/06 06:15:29;;;;;;;20.45;11.40;;;;;;;5.20;67.04;98855.09;4441790;32;33426;-79
2021/12/06 06:17:58;;;;;;;19.58;10.20;;;;;;;4.95;67.72;98850.03;4441667;32;34484;-81
2021/12/06 06:20:37;;;;;;;23.02;11.88;;;;;;;5.10;67.37;98841.81;4454063;32;35381;-81
2021/12/06 06:23:05;;;;;;;25.60;14.60;;;;;;;5.06;67.41;98859.56;4440063;32;34746;-81
2021/12/06 06:25:33;;;;;;;22.00;11.38;;;;;;;5.13;67.16;98856.91;4439624;32;31979;-80
2021/12/06 06:28:02;;;;;;;22.13;12.02;;;;;;;4.95;67.72;98852.75;4440398;32;33713;-79
2021/12/06 06:30:30;;;;;;;20.52;10.90;;;;;;;4.87;68.17;98852.88;4440326;32;33983;-79
2021/12/06 06:32:58;;;;;;;21.62;11.90;;;;;;;4.92;67.88;98849.59;4440514;32;34208;-79
2021/12/06 06:35:26;;;;;;;20.92;10.95;;;;;;;4.79;68.51;98855.72;4440654;32;33477;-81
2021/12/06 06:37:54;;;;;;;38.25;18.40;;;;;;;4.87;68.51;98858.31;4428224;32;32277;-79
2021/12/06 06:40:22;;;;;;;35.30;18.00;;;;;;;4.80;68.54;98865.56;4428456;32;33140;-79
2021/12/06 06:42:49;;;;;;;29.23;14.30;;;;;;;4.35;70.18;98871.31;4453998;32;33885;-80
2021/12/06 06:45:20;;;;;;;24.63;13.15;;;;;;;4.74;69.12;98882.63;4441210;32;32145;-82
2021/12/06 06:47:48;;;;;;;27.58;13.38;;;;;;;4.74;69.10;98879.91;4441318;32;34391;-79
2021/12/06 06:50:16;;;;;;;23.45;12.82;;;;;;;4.73;69.44;98886.38;4441253;32;34132;-79
2021/12/06 06:52:45;;;;;;;26.60;12.85;;;;;;;4.75;69.27;98895.19;4441034;32;33794;-79
2021/12/06 06:55:13;;;;;;;27.83;13.55;;;;;;;4.36;70.28;98894.72;4441196;32;33558;-79
2021/12/06 06:57:43;;;;;;;28.48;14.00;;;;;;;4.53;69.92;98907.91;4441175;32;33322;-80
2021/12/06 07:00:16;;;;;;;26.75;13.75;;;;;;;4.89;68.92;98913.34;4441354;32;34480;-80
2021/12/06 07:02:44;;;;;;;23.50;13.35;;;;;;;4.75;69.51;98916.09;4441145;32;32494;-79
2021/12/06 07:05:13;;;;;;;25.62;13.70;;;;;;;4.87;69.09;98914.56;4441015;32;32037;-79
2021/12/06 07:07:41;;;;;;;27.73;13.88;;;;;;;4.75;69.27;98919.66;4440441;32;32275;-79
2021/12/06 07:10:09;;;;;;;28.25;14.70;;;;;;;4.59;69.70;98918.00;4453874;32;35211;-79
2021/12/06 07:12:44;;;;;;;27.23;14.43;;;;;;;4.72;69.68;98921.91;4453823;32;34075;-79
2021/12/06 07:15:14;;;;;;;29.55;14.68;;;;;;;4.75;69.55;98925.09;4453835;32;33583;-80
2021/12/06 07:17:43;;;;;;;29.25;14.35;;;;;;;4.77;69.10;98930.34;4440728;32;33318;-80
2021/12/06 07:20:11;;;;;;;25.83;13.05;;;;;;;4.79;69.44;98933.72;4453704;32;34480;-79
2021/12/06 07:22:39;;;;;;;30.17;16.17;;;;;;;4.74;69.40;98937.00;4441222;32;34250;-79
2021/12/06 07:25:08;;;;;;;33.97;17.73;;;;;;;4.84;69.15;98932.09;4453744;32;33613;-79
2021/12/06 07:27:36;;;;;;;31.02;15.98;;;;;;;4.86;69.14;98940.91;4440977;32;34476;-79
2021/12/06 07:30:05;;;;;;;37.05;17.75;;;;;;;5.19;68.46;98945.88;4443096;32;33935;-79
2021/12/06 07:32:33;;;;;;;35.92;17.00;;;;;;;4.81;69.15;98937.91;4440817;32;32524;-79
2021/12/06 07:35:02;;;;;;;34.90;18.12;;;;;;;5.03;68.48;98940.69;4440857;32;33651;-79
2021/12/06 07:37:29;;;;;;;34.13;17.20;;;;;;;5.00;68.58;98943.78;4453868;32;33813;-79
2021/12/06 07:39:57;;;;;;;31.62;16.40;;;;;;;5.08;68.51;98944.50;4440898;32;34112;-80
2021/12/06 07:42:25;;;;;;;32.53;16.45;;;;;;;4.87;69.43;98942.59;4440811;32;34701;-79
2021/12/06 07:44:52;;;;;;;55.97;26.35;;;;;;;5.00;69.06;98954.66;4444810;32;33432;-80
2021/12/06 07:47:21;;;;;;;38.72;19.08;;;;;;;5.21;68.31;98960.09;4449073;32;33670;-79
2021/12/06 07:49:49;;;;;;;38.17;19.27;;;;;;;4.97;68.87;98954.00;4440693;32;34782;-79
2021/12/06 07:52:26;;;;;;;38.67;18.35;;;;;;;5.29;67.81;98949.09;4441786;32;33310;-79
2021/12/06 07:54:59;;;;;;;39.25;19.30;;;;;;;5.10;68.33;98955.19;4440652;32;33599;-79
2021/12/06 07:57:28;;;;;;;39.15;18.85;;;;;;;5.08;68.57;98960.00;4441008;32;33592;-79
2021/12/06 07:59:56;;;;;;;36.15;16.90;;;;;;;5.18;68.01;98964.09;4453385;32;34210;-79
2021/12/06 08:02:24;;;;;;;33.58;17.35;;;;;;;5.01;68.89;98951.75;4441244;32;34670;-79
2021/12/06 08:05:29;;;;;;;37.65;19.25;;;;;;;5.22;68.35;98956.34;4440934;32;32256;-79
2021/12/06 08:07:44;;;;;;;43.35;18.85;;;;;;;4.17;71.05;98959.41;4453600;32;33665;-79
2021/12/06 08:10:14;;;;;;;43.47;19.50;;;;;;;4.56;70.76;98961.84;4437085;32;34219;-79
2021/12/06 08:12:44;;;;;;;40.75;19.95;;;;;;;4.82;69.95;98958.63;4453316;32;34601;-79
2021/12/06 08:15:12;;;;;;;41.85;19.37;;;;;;;4.60;70.86;98957.72;4440895;32;33628;-79
2021/12/06 08:17:40;;;;;;;41.83;20.05;;;;;;;4.79;70.42;98964.44;4453294;32;33784;-79
2021/12/06 08:20:09;;;;;;;39.08;19.40;;;;;;;4.66;71.08;98963.44;4440616;32;34830;-79
2021/12/06 08:22:37;;;;;;;42.20;20.88;;;;;;;4.36;71.88;98966.19;4440544;32;34737;-79
2021/12/06 08:25:06;;;;;;;44.28;20.33;;;;;;;4.43;71.88;98969.00;4453409;32;32474;-79
2021/12/06 08:27:34;;;;;;;48.42;23.35;;;;;;;4.59;71.19;98966.06;4453394;32;33756;-79
2021/12/06 08:30:04;;;;;;;44.33;21.05;;;;;;;4.50;71.80;98975.38;4462975;32;33487;-79
2021/12/06 08:32:32;;;;;;;44.10;20.17;;;;;;;3.98;73.50;98984.38;4443392;32;34490;-79
2021/12/06 08:35:06;;;;;;;39.10;19.40;;;;;;;3.99;73.81;98991.50;4456858;32;33729;-79
2021/12/06 08:37:34;;;;;;;40.60;20.33;;;;;;;4.48;71.94;98994.56;4440495;32;33306;-79
2021/12/06 08:40:05;;;;;;;58.53;26.25;;;;;;;4.58;71.58;98992.38;4440419;32;33029;-79
2021/12/06 08:42:33;;;;;;;52.85;23.45;;;;;;;4.48;71.44;99004.59;4453334;32;33870;-80
2021/12/06 08:45:01;;;;;;;42.78;21.00;;;;;;;4.80;71.00;99008.78;4453060;32;34560;-80
2021/12/06 08:47:29;;;;;;;42.95;19.83;;;;;;;4.30;73.81;98999.53;4439470;32;32057;-79
2021/12/06 08:49:57;;;;;;;41.92;18.73;;;;;;;4.26;72.54;99007.19;4452317;32;34275;-79
2021/12/06 08:52:24;;;;;;;47.35;23.00;;;;;;;3.81;74.68;99007.31;4440509;32;34224;-80
2021/12/06 08:54:52;;;;;;;39.83;18.67;;;;;;;3.98;74.15;99011.53;4452902;32;33354;-80
2021/12/06 08:57:20;;;;;;;39.55;19.83;;;;;;;3.67;75.24;99010.81;4450930;32;33216;-80
2021/12/06 08:59:47;;;;;;;39.53;19.92;;;;;;;3.74;75.44;99018.03;4441075;32;34325;-80
2021/12/06 09:02:15;;;;;;;41.63;19.10;;;;;;;3.83;75.37;99016.09;4439955;32;33548;-80
2021/12/06 09:05:03;;;;;;;37.58;18.15;;;;;;;3.86;75.47;99018.47;4431550;32;32122;-80
2021/12/06 09:07:32;;;;;;;34.78;18.02;;;;;;;3.92;74.74;99006.84;4440073;32;31848;-80
2021/12/06 09:09:59;;;;;;;35.85;18.23;;;;;;;4.37;73.30;99010.50;4449467;32;32936;-80
2021/12/06 09:12:29;;;;;;;34.67;17.12;;;;;;;4.06;74.59;99008.75;4440105;32;34825;-80
2021/12/06 09:15:00;;;;;;;31.67;15.70;;;;;;;4.35;73.50;99001.69;4452682;32;33510;-80
2021/12/06 09:17:28;;;;;;;30.75;15.73;;;;;;;4.12;74.60;98997.16;4440050;32;34528;-80
2021/12/06 09:19:56;;;;;;;30.58;15.73;;;;;;;4.01;74.36;99004.91;4452523;32;33059;-80
2021/12/06 09:22:25;;;;;;;35.65;18.37;;;;;;;4.28;73.86;98990.72;4439744;32;32502;-80
2021/12/06 09:24:52;;;;;;;40.05;19.73;;;;;;;4.29;74.43;98986.97;4439701;32;32853;-80
2021/12/06 09:27:20;;;;;;;29.27;16.00;;;;;;;4.50;73.92;98978.94;4439899;32;33648;-79
2021/12/06 09:29:48;;;;;;;30.55;16.62;;;;;;;4.67;73.51;98979.53;4454312;32;34014;-80
2021/12/06 09:32:17;;;;;;;25.75;13.10;;;;;;;5.08;71.97;98970.88;4444917;32;33985;-80
2021/12/06 09:34:46;;;;;;;30.50;16.00;;;;;;;4.74;72.18;98969.59;4463023;32;33444;-81
2021/12/06 09:37:14;;;;;;;25.88;14.77;;;;;;;4.67;72.69;98965.97;4451821;32;32141;-80
2021/12/06 09:39:42;;;;;;;29.83;16.83;;;;;;;4.83;72.25;98968.47;4457633;32;34990;-79
2021/12/06 09:42:10;;;;;;;38.22;21.17;;;;;;;4.39;73.48;98970.41;4470186;32;32622;-80
2021/12/06 09:44:37;;;;;;;31.45;17.05;;;;;;;4.60;74.37;98973.19;4444773;32;33524;-80
2021/12/06 09:47:06;;;;;;;27.50;14.75;;;;;;;4.12;75.42;98974.59;4444657;32;33817;-80
2021/12/06 09:49:33;;;;;;;27.48;15.68;;;;;;;3.89;76.13;98975.50;4454655;32;34477;-79
2021/12/06 09:52:04;;;;;;;28.33;15.70;;;;;;;4.31;74.58;98974.03;4447189;32;34110;-80
2021/12/06 09:54:34;;;;;;;24.92;15.60;;;;;;;4.35;74.66;98960.94;4457269;32;33282;-80
2021/12/06 09:57:04;;;;;;;28.25;16.15;;;;;;;4.50;74.63;98972.66;4457561;32;33176;-80
2021/12/06 09:59:34;;;;;;;44.58;23.50;;;;;;;4.24;74.68;98965.78;4451403;32;33075;-80
2021/12/06 10:02:14;;;;;;;49.20;27.90;;;;;;;4.12;74.88;98961.00;4444299;32;32375;-79
2021/12/06 10:04:51;;;;;;;32.38;18.62;;;;;;;4.58;74.50;98948.06;4457062;32;33221;-79
2021/12/06 10:07:19;;;;;;;30.17;17.00;;;;;;;4.50;74.56;98951.75;4444772;32;33569;-80
2021/12/06 10:09:47;;;;;;;28.90;17.48;;;;;;;5.03;72.76;98951.56;4444330;32;32720;-80
2021/12/06 10:12:16;;;;;;;31.52;18.67;;;;;;;4.85;72.93;98946.53;4444418;32;32506;-80
2021/12/06 10:14:45;;;;;;;28.45;15.95;;;;;;;5.05;71.36;98944.91;4439606;32;97748;-78
2021/12/06 10:17:15;;;;;;;27.67;16.65;;;;;;;5.25;71.28;98942.37;4436011;32;34199;-80
2021/12/06 10:19:44;;;;;;;26.90;16.12;;;;;;;4.75;73.03;98949.56;4446976;32;33791;-80
2021/12/06 10:22:13;;;;;;;25.45;15.15;;;;;;;4.88;72.62;98954.31;4458686;32;32339;-81
2021/12/06 10:24:49;;;;;;;27.87;16.45;;;;;;;4.89;72.79;98948.69;4459423;32;32096;-80
2021/12/06 10:27:17;;;;;;;27.70;15.93;;;;;;;5.12;71.51;98940.38;4459756;32;34641;-81
2021/12/06 10:29:53;;;;;;;23.83;14.32;;;;;;;4.89;72.26;98935.09;4446873;32;33033;-81
2021/12/06 10:32:23;;;;;;;27.37;15.60;;;;;;;4.85;72.56;98936.50;4459662;32;33427;-81
2021/12/06 10:34:54;;;;;;;22.98;13.32;;;;;;;4.88;72.29;98938.84;4459146;32;32663;-80
2021/12/06 10:37:46;;;;;;;34.10;19.75;;;;;;;5.28;71.60;98940.09;4446469;32;32993;-80
2021/12/06 10:40:32;;;;;;;32.60;19.73;;;;;;;5.04;72.52;98954.09;4450690;32;34369;-81
2021/12/06 10:43:05;;;;;;;23.87;14.13;;;;;;;4.95;72.04;98971.56;4468499;32;33315;-80
2021/12/06 10:45:42;;;;;;;47.00;25.67;;;;;;;4.83;72.22;98992.09;4456573;32;34741;-81
2021/12/06 10:48:19;;;;;;;28.12;17.08;;;;;;;4.43;74.00;99012.47;4457043;32;34416;-80
2021/12/06 10:51:06;;;;;;;23.85;15.15;;;;;;;4.85;72.72;99026.22;4456661;32;35411;-81
2021/12/06 10:53:43;;;;;;;24.20;14.13;;;;;;;4.92;71.97;99031.75;4456362;32;33286;-81
2021/12/06 10:56:22;;;;;;;25.23;14.75;;;;;;;4.96;71.81;99023.03;4469532;32;33612;-80
2021/12/06 10:58:53;;;;;;;22.35;16.20;;;;;;;5.34;70.61;99025.56;4456619;32;32322;-80
2021/12/06 11:01:27;;;;;;;27.37;16.10;;;;;;;5.48;70.37;99032.84;4457006;32;35707;-79
2021/12/06 11:03:57;;;;;;;23.35;15.07;;;;;;;5.53;70.47;99034.97;4456674;32;34142;-80
2021/12/06 11:06:30;;;;;;;31.25;19.12;;;;;;;5.52;69.95;99023.25;4469364;32;34343;-80
2021/12/06 11:09:01;;;;;;;24.80;15.15;;;;;;;5.80;69.19;99020.59;4456968;32;33561;-80
2021/12/06 11:11:34;;;;;;;26.40;16.15;;;;;;;6.02;68.75;99017.87;4456506;32;33972;-80
2021/12/06 11:14:07;;;;;;;22.83;15.05;;;;;;;5.90;68.34;99020.28;4456799;32;34061;-81
2021/12/06 11:16:39;;;;;;;28.98;16.73;;;;;;;6.04;68.27;99021.25;4456427;32;34349;-80
2021/12/06 11:19:12;;;;;;;33.35;19.90;;;;;;;5.72;68.47;99023.47;4443606;32;33179;-81
2021/12/06 11:21:49;;;;;;;24.90;13.60;;;;;;;5.93;68.08;99019.91;4453414;32;35176;-80
2021/12/06 11:24:34;;;;;;;19.20;11.85;;;;;;;5.55;69.02;99038.34;4441224;32;33878;-81
2021/12/06 11:27:22;;;;;;;20.27;13.27;;;;;;;5.68;68.48;99037.66;4441210;32;32108;-81
2021/12/06 11:29:55;;;;;;;26.98;14.10;;;;;;;5.98;67.58;99035.66;4441065;32;33355;-81
2021/12/06 11:32:26;;;;;;;20.92;12.52;;;;;;;6.02;68.64;99040.50;4441242;32;34625;-81
2021/12/06 11:34:58;;;;;;;21.23;12.98;;;;;;;6.28;68.39;99043.47;4454166;32;33881;-81
2021/12/06 11:37:31;;;;;;;45.42;27.15;;;;;;;6.32;67.83;99045.81;4441101;32;33682;-80
2021/12/06 11:40:04;;;;;;;32.15;16.85;;;;;;;6.11;68.21;99044.78;4453959;32;34570;-80
2021/12/06 11:42:47;;;;;;;23.48;14.50;;;;;;;6.01;67.98;99032.53;4453916;32;34276;-80
2021/12/06 11:45:30;;;;;;;17.10;10.82;;;;;;;6.15;67.62;99040.63;4448010;32;33502;-81
2021/12/06 11:48:06;;;;;;;16.60;10.82;;;;;;;6.25;67.18;99034.84;4443614;32;33555;-80
2021/12/06 11:50:34;;;;;;;19.75;11.35;;;;;;;5.80;68.13;99039.66;4449091;32;33578;-80
2021/12/06 11:53:04;;;;;;;17.90;10.07;;;;;;;6.13;67.55;99052.75;4440201;32;35193;-80
2021/12/06 11:55:36;;;;;;;33.17;18.17;;;;;;;5.79;68.57;99050.75;4453477;32;34208;-81